Aeroporto :
LOGIN :

Iscrizione | Disclaimer

   EN    FR    IT 

 










Sommario :    VFR   VFR Marginale   IFR   IFR Intensivo   IFR Molto Intensivo
Visibilità : 
Base nubi : 
>= 8 km
>= 3000ft
5 / 8 km
1000 / 3000 ft
1500m / 5 km
500 / 1000 ft
800 / 1500m
200 / 500 ft
< 800m
< 200 ft
Simboli :   Temporali  Nebbia  Neve Forte  Precipitazioni Forti  Vento > 20 kt
SIGMETs :   Varie  Temporali  Ghiacco  Turbolenza  Onda orograficha  Ceneri Vulcaniche






- Altitudine del aeroporto : 1071 ft
- Codice IATA : LWO


UKLL - L'viv

ULTIMO METAR :
  • 242300Z 00000MPS 6000 NSC 05/04 Q1021 R31/290055 NOSIG

METARs OBSOLETI :
  • 242230Z 00000MPS 6000 NSC 05/04 Q1021 R31/290055 NOSIG
  • 242200Z 00000MPS 6000 NSC 05/04 Q1021 R31/290055 NOSIG
  • 242130Z 00000MPS 6000 NSC 06/05 Q1021 R31/290055 NOSIG
  • 242116Z 00000MPS 4400 BR NSC 05/05 Q1022 R31/290055 NOSIG
  • 242100Z 00000MPS 4000 BR NSC 06/05 Q1022 R31/290055 NOSIG
  • 242030Z 00000MPS 7000 NSC 06/05 Q1021 R31/290055 NOSIG

TAF TAF UKLL
Valido dal 25 a 00 ore il 26 a 00 ore UTC


242306Z 2500/2524 VRB01MPS 4000 BR BKN030
TEMPO 2500/2512 29005G10MPS 2100 -SHRA BR SCT003 BKN007 BKN025CB
TEMPO 2512/2518 VRB06G12MPS 2100 -TSRAGR SCT003 BKN007 BKN020CB
TEMPO 2518/2524 0400 FG SCT002



MetMap, La meteo Aeronautica in un colpo d'occhio ! - Copyright ORBIFLY Dicembre 2007 - Disclaimer

ORBIFLY MET'MAP TEAM :

Programmazione e sviluppo : Alexandra Zaïnal
Concezione : Baudouin d'Aumeries
Aiuto per la programmazione : Marc-Olivier Méhu
Supporto tecnico e logistico : Manuel Goepfert
Aiuto per la traduzione : Arnaldo La Scala

Contatto : metmap@orbifly.com




FONTI E CREDITI :

   NOAA